Tie Siding, WY (82084)

12:05 PM MDT on August 04, 2015 (GMT -0600)
Harriman Heights | | Change Station
CLOSE
Current Station
Personal Weather Station
Location: Wyoming, WY
Elevation: 7467 ft
Nearby Weather Stations

Elev 7467 ft 41.00 °N, 105.25 °W | Updated 2 minutes ago

Overcast
Overcast
70.2 °F
Feels Like 77 °F
N
19.7
Wind Variable Wind from SW

Today
High -- | Low -- °F
--% Chance of Precip.
Yesterday
High -- | Low -- °F
Precip. -- in
6:00 AM 8:14 PM
Waning Gibbous, 76% visible
Pressure 29.93 in
Visibility 10.0 miles
Clouds Mostly Cloudy 4100 ft
Overcast 4800 ft
Heat Index 77 °F
Dew Point 46 °F
Humidity 42%
Rainfall 0.00 in
Snow Depth Not available.
UV 3 out of 12
Pollen 8.30 out of 12
Air Quality Not available.
Flu Activity Not available.
METAR KLAR 041753Z AUTO 27018G26KT 10SM BKN041 OVC048 18/09 A3021 RMK AO2 PK WND 25032/1741 RAB32E45 SLP134 P0000 6//// T01780089 10189 20122 53003

More Conditions Fewer Conditions

Pressure 29.93 in
Visibility 10.0 miles
Clouds Mostly Cloudy 4100 ft
Overcast 4800 ft
Heat Index 77 °F
Dew Point 46 °F
Humidity 42%
Rainfall 0.00 in
Snow Depth Not available.
UV 3 out of 12
Pollen 8.30 out of 12
Air Quality Not available.
Flu Activity Not available.
METAR KLAR 041753Z AUTO 27018G26KT 10SM BKN041 OVC048 18/09 A3021 RMK AO2 PK WND 25032/1741 RAB32E45 SLP134 P0000 6//// T01780089 10189 20122 53003

More Conditions Fewer Conditions

10-Day Weather Forecast

×

Almanac

Astronomy

Aug. 04, 2015 Rise Set
Actual Time
Civil Twilight
Nautical Twilight
Astronomical Twilight
Moon
Length of Visible Light
Length of Day
Tomorrow will be .
, % of the Moon is Illuminated

Today's Extremes

State Highs State Lows

Community

WunderPhotos

Upload Photos

1,843,930 photos uploaded!

WunderBlogs® & News

Nearby

Air Quality

  Air Quality AQ Index Pollutant
Not available.

Snow Depth

Station Depth Elevation

Earthquake Activity

City Distance Mag. Time & Date
Minimum magnitude displayed is 2.5.

Coastal Water Temperatures

Place Temperature

Stations

Nearby Weather Stations

Station Location Temp. Windchill Dew Point Humidity Wind Precip. Elev Updated Type